AAY1714 KPDX-KIDA
Flight info
| Callsign | AAY1714 |
|---|---|
| Flight time | 1h 15m |
| Altitude | 35000 |
| Route | WHAMY5 IMB |
| Aircraft | B738/M-SDE2E3FGHIRWXY/LB1 |
Departure
| Time | 2026-04-18 03:05 |
|---|---|
| Airport | Portland International Airport (KPDX) |
Arrival
| Time | 2026-04-18 04:21 |
|---|---|
| Airport | Idaho Falls Regional Airport (KIDA) |
| Time | Latitude | Longitude | Altitude | Speed | Heading |
|---|---|---|---|---|---|
| 2026-04-18 02:20 | 45.58874 | -122.59749 | 32 ft | 0 kts | 29° |
| 2026-04-18 02:52 | 45.58871 | -122.59751 | 34 ft | 2 kts | 29° |
| 2026-04-18 02:52 | 45.58854 | -122.59764 | 32 ft | 3 kts | 29° |
| 2026-04-18 02:53 | 45.58839 | -122.59777 | 33 ft | 2 kts | 30° |
| 2026-04-18 02:53 | 45.58824 | -122.59792 | 34 ft | 3 kts | 59° |
| 2026-04-18 02:53 | 45.58819 | -122.59816 | 34 ft | 3 kts | 102° |
| 2026-04-18 02:53 | 45.58824 | -122.59836 | 33 ft | 1 kts | 118° |
| 2026-04-18 02:54 | 45.58824 | -122.59837 | 33 ft | 1 kts | 118° |
| 2026-04-18 03:00 | 45.58821 | -122.59830 | 34 ft | 5 kts | 118° |
| 2026-04-18 03:00 | 45.58776 | -122.59711 | 35 ft | 19 kts | 118° |
| 2026-04-18 03:00 | 45.58710 | -122.59544 | 33 ft | 19 kts | 120° |
| 2026-04-18 03:01 | 45.58638 | -122.59392 | 36 ft | 19 kts | 128° |
| 2026-04-18 03:01 | 45.58557 | -122.59251 | 30 ft | 18 kts | 129° |
| 2026-04-18 03:01 | 45.58478 | -122.59112 | 30 ft | 18 kts | 128° |
| 2026-04-18 03:01 | 45.58406 | -122.58974 | 30 ft | 17 kts | 121° |
| 2026-04-18 03:02 | 45.58348 | -122.58830 | 32 ft | 16 kts | 120° |
| 2026-04-18 03:02 | 45.58293 | -122.58689 | 31 ft | 16 kts | 119° |
| 2026-04-18 03:02 | 45.58241 | -122.58555 | 31 ft | 15 kts | 119° |
| 2026-04-18 03:02 | 45.58191 | -122.58425 | 30 ft | 15 kts | 119° |
| 2026-04-18 03:03 | 45.58174 | -122.58387 | 29 ft | 0 kts | 129° |
| 2026-04-18 03:03 | 45.58172 | -122.58384 | 29 ft | 1 kts | 129° |
| 2026-04-18 03:03 | 45.58169 | -122.58379 | 29 ft | 2 kts | 129° |
| 2026-04-18 03:03 | 45.58102 | -122.58374 | 30 ft | 12 kts | 210° |
| 2026-04-18 03:04 | 45.58082 | -122.58473 | 32 ft | 11 kts | 299° |
| 2026-04-18 03:04 | 45.58084 | -122.58477 | 32 ft | 0 kts | 299° |
| 2026-04-18 03:05 | 45.58166 | -122.58691 | 34 ft | 67 kts | 298° |
| 2026-04-18 03:05 | 45.58538 | -122.59649 | 38 ft | 150 kts | 299° |
| 2026-04-18 03:05 | 45.59143 | -122.61148 | 398 ft | 193 kts | 301° |
| 2026-04-18 03:05 | 45.59902 | -122.62945 | 864 ft | 231 kts | 301° |
| 2026-04-18 03:06 | 45.60738 | -122.64970 | 1777 ft | 242 kts | 301° |
| 2026-04-18 03:06 | 45.61584 | -122.67027 | 2771 ft | 245 kts | 301° |
| 2026-04-18 03:06 | 45.62484 | -122.69213 | 3173 ft | 262 kts | 301° |
| 2026-04-18 03:06 | 45.63426 | -122.71504 | 3772 ft | 270 kts | 300° |
| 2026-04-18 03:07 | 45.64378 | -122.73817 | 4594 ft | 270 kts | 299° |
| 2026-04-18 03:07 | 45.65331 | -122.76139 | 5396 ft | 271 kts | 298° |
| 2026-04-18 03:07 | 45.66290 | -122.78475 | 6148 ft | 274 kts | 298° |
| 2026-04-18 03:07 | 45.67065 | -122.80949 | 6830 ft | 273 kts | 276° |
| 2026-04-18 03:08 | 45.66974 | -122.83621 | 7538 ft | 269 kts | 253° |
| 2026-04-18 03:08 | 45.66449 | -122.86162 | 8217 ft | 271 kts | 251° |
| 2026-04-18 03:08 | 45.65850 | -122.88740 | 8880 ft | 275 kts | 245° |
| 2026-04-18 03:08 | 45.64718 | -122.90920 | 9531 ft | 277 kts | 218° |
| 2026-04-18 03:09 | 45.62999 | -122.92147 | 10184 ft | 281 kts | 193° |
| 2026-04-18 03:09 | 45.60984 | -122.92223 | 10383 ft | 304 kts | 169° |
| 2026-04-18 03:09 | 45.58882 | -122.91393 | 10610 ft | 322 kts | 164° |
| 2026-04-18 03:09 | 45.56702 | -122.90441 | 11046 ft | 332 kts | 162° |
| 2026-04-18 03:10 | 45.54656 | -122.88877 | 11602 ft | 340 kts | 140° |
| 2026-04-18 03:10 | 45.53159 | -122.86258 | 12252 ft | 346 kts | 120° |
| 2026-04-18 03:10 | 45.52128 | -122.83136 | 12951 ft | 349 kts | 115° |
| 2026-04-18 03:10 | 45.51151 | -122.79938 | 13610 ft | 353 kts | 115° |
| 2026-04-18 03:11 | 45.50174 | -122.76695 | 14246 ft | 358 kts | 115° |
| 2026-04-18 03:11 | 45.49197 | -122.73460 | 14774 ft | 363 kts | 114° |
| 2026-04-18 03:11 | 45.48182 | -122.70128 | 15302 ft | 370 kts | 114° |
| 2026-04-18 03:11 | 45.47143 | -122.66749 | 15885 ft | 375 kts | 114° |
| 2026-04-18 03:12 | 45.46085 | -122.63329 | 16481 ft | 379 kts | 114° |
| 2026-04-18 03:12 | 45.45009 | -122.59865 | 17059 ft | 384 kts | 114° |
| 2026-04-18 03:12 | 45.43917 | -122.56362 | 17623 ft | 390 kts | 114° |
| 2026-04-18 03:12 | 45.42808 | -122.52815 | 18181 ft | 395 kts | 114° |
| 2026-04-18 03:13 | 45.41683 | -122.49221 | 18695 ft | 400 kts | 114° |
| 2026-04-18 03:13 | 45.40544 | -122.45593 | 19218 ft | 403 kts | 114° |
| 2026-04-18 03:13 | 45.39395 | -122.41933 | 19767 ft | 406 kts | 114° |
| 2026-04-18 03:13 | 45.38234 | -122.38244 | 20296 ft | 409 kts | 114° |
| 2026-04-18 03:14 | 45.37066 | -122.34535 | 20835 ft | 412 kts | 114° |
| 2026-04-18 03:14 | 45.35889 | -122.30805 | 21333 ft | 416 kts | 114° |
| 2026-04-18 03:14 | 45.34700 | -122.27042 | 21828 ft | 419 kts | 114° |
| 2026-04-18 03:14 | 45.33495 | -122.23232 | 22317 ft | 423 kts | 114° |
| 2026-04-18 03:15 | 45.32281 | -122.19403 | 22804 ft | 426 kts | 115° |
| 2026-04-18 03:15 | 45.31070 | -122.15585 | 23280 ft | 430 kts | 115° |
| 2026-04-18 03:15 | 45.29835 | -122.11699 | 23748 ft | 433 kts | 115° |
| 2026-04-18 03:15 | 45.28589 | -122.07781 | 24135 ft | 437 kts | 115° |
| 2026-04-18 03:16 | 45.27331 | -122.03832 | 24499 ft | 440 kts | 115° |
| 2026-04-18 03:16 | 45.26064 | -121.99862 | 24882 ft | 444 kts | 115° |
| 2026-04-18 03:16 | 45.24838 | -121.95825 | 25226 ft | 447 kts | 111° |
| 2026-04-18 03:16 | 45.23770 | -121.91657 | 25564 ft | 451 kts | 105° |
| 2026-04-18 03:17 | 45.23154 | -121.87281 | 25872 ft | 454 kts | 97° |
| 2026-04-18 03:17 | 45.22693 | -121.82830 | 26261 ft | 457 kts | 97° |
| 2026-04-18 03:17 | 45.22236 | -121.78353 | 26604 ft | 460 kts | 97° |
| 2026-04-18 03:17 | 45.21769 | -121.73840 | 26933 ft | 464 kts | 97° |
| 2026-04-18 03:18 | 45.21289 | -121.69300 | 27267 ft | 467 kts | 97° |
| 2026-04-18 03:18 | 45.20803 | -121.64787 | 27569 ft | 470 kts | 98° |
| 2026-04-18 03:18 | 45.20299 | -121.60190 | 27875 ft | 473 kts | 98° |
| 2026-04-18 03:18 | 45.19786 | -121.55567 | 28237 ft | 475 kts | 98° |
| 2026-04-18 03:19 | 45.19269 | -121.50943 | 28591 ft | 476 kts | 98° |
| 2026-04-18 03:19 | 45.18747 | -121.46295 | 28897 ft | 479 kts | 98° |
| 2026-04-18 03:19 | 45.18220 | -121.41615 | 29162 ft | 482 kts | 98° |
| 2026-04-18 03:19 | 45.17688 | -121.36910 | 29442 ft | 485 kts | 98° |
| 2026-04-18 03:20 | 45.17151 | -121.32177 | 29731 ft | 487 kts | 98° |
| 2026-04-18 03:20 | 45.16610 | -121.27429 | 30020 ft | 490 kts | 98° |
| 2026-04-18 03:20 | 45.16065 | -121.22657 | 30290 ft | 492 kts | 98° |
| 2026-04-18 03:20 | 45.15514 | -121.17852 | 30520 ft | 495 kts | 98° |
| 2026-04-18 03:21 | 45.14959 | -121.13026 | 30741 ft | 497 kts | 98° |
| 2026-04-18 03:21 | 45.14399 | -121.08180 | 30969 ft | 500 kts | 98° |
| 2026-04-18 03:21 | 45.13834 | -121.03312 | 31245 ft | 501 kts | 98° |
| 2026-04-18 03:21 | 45.13268 | -120.98452 | 31625 ft | 499 kts | 98° |
| 2026-04-18 03:22 | 45.12707 | -120.93660 | 31902 ft | 500 kts | 98° |
| 2026-04-18 03:22 | 45.12138 | -120.88802 | 32158 ft | 502 kts | 98° |
| 2026-04-18 03:22 | 45.11563 | -120.83920 | 32432 ft | 502 kts | 98° |
| 2026-04-18 03:22 | 45.10986 | -120.79041 | 32725 ft | 503 kts | 98° |
| 2026-04-18 03:23 | 45.10406 | -120.74162 | 32986 ft | 503 kts | 98° |
| 2026-04-18 03:23 | 45.09823 | -120.69269 | 33236 ft | 505 kts | 98° |
| 2026-04-18 03:23 | 45.09236 | -120.64357 | 33511 ft | 505 kts | 98° |
| 2026-04-18 03:23 | 45.08648 | -120.59459 | 33776 ft | 505 kts | 98° |
| 2026-04-18 03:24 | 45.08058 | -120.54562 | 34018 ft | 507 kts | 98° |
| 2026-04-18 03:24 | 45.07462 | -120.49634 | 34252 ft | 508 kts | 97° |
| 2026-04-18 03:24 | 45.06864 | -120.44709 | 34491 ft | 507 kts | 97° |
| 2026-04-18 03:24 | 45.06264 | -120.39795 | 34789 ft | 506 kts | 97° |
| 2026-04-18 03:25 | 45.05664 | -120.34904 | 35103 ft | 503 kts | 97° |
| 2026-04-18 03:25 | 45.05063 | -120.30014 | 35237 ft | 507 kts | 97° |
| 2026-04-18 03:25 | 45.03857 | -120.20213 | 35229 ft | 510 kts | 97° |
| 2026-04-18 03:26 | 45.02634 | -120.10386 | 35226 ft | 503 kts | 97° |
| 2026-04-18 03:26 | 45.01416 | -120.00669 | 35263 ft | 502 kts | 97° |
| 2026-04-18 03:27 | 45.00190 | -119.90950 | 35257 ft | 502 kts | 97° |
| 2026-04-18 03:27 | 44.98950 | -119.81185 | 35446 ft | 506 kts | 97° |
| 2026-04-18 03:28 | 44.98327 | -119.76307 | 35718 ft | 505 kts | 97° |
| 2026-04-18 03:28 | 44.97710 | -119.71496 | 36019 ft | 502 kts | 97° |
| 2026-04-18 03:28 | 44.97086 | -119.66655 | 36316 ft | 500 kts | 97° |
| 2026-04-18 03:28 | 44.96462 | -119.61828 | 36585 ft | 499 kts | 97° |
| 2026-04-18 03:29 | 44.95838 | -119.57007 | 36781 ft | 499 kts | 97° |
| 2026-04-18 03:29 | 44.95211 | -119.52184 | 36965 ft | 500 kts | 97° |
| 2026-04-18 03:29 | 44.94582 | -119.47355 | 37222 ft | 498 kts | 97° |
| 2026-04-18 03:29 | 44.93951 | -119.42536 | 37249 ft | 501 kts | 97° |
| 2026-04-18 03:30 | 44.92675 | -119.32832 | 37249 ft | 501 kts | 97° |
| 2026-04-18 03:30 | 44.91401 | -119.23226 | 37258 ft | 496 kts | 97° |
| 2026-04-18 03:31 | 44.90127 | -119.13682 | 37254 ft | 494 kts | 97° |
| 2026-04-18 03:31 | 44.88852 | -119.04184 | 37251 ft | 492 kts | 97° |
| 2026-04-18 03:32 | 44.87579 | -118.94761 | 37271 ft | 492 kts | 97° |
| 2026-04-18 03:32 | 44.86290 | -118.85276 | 37264 ft | 493 kts | 97° |
| 2026-04-18 03:33 | 44.84988 | -118.75765 | 37249 ft | 493 kts | 97° |
| 2026-04-18 03:33 | 44.83680 | -118.66265 | 37274 ft | 494 kts | 98° |
| 2026-04-18 03:34 | 44.82366 | -118.56794 | 37253 ft | 495 kts | 98° |
| 2026-04-18 03:34 | 44.81038 | -118.47284 | 37276 ft | 496 kts | 98° |
| 2026-04-18 03:35 | 44.79697 | -118.37743 | 37277 ft | 497 kts | 98° |
| 2026-04-18 03:35 | 44.78348 | -118.28199 | 37278 ft | 497 kts | 98° |
| 2026-04-18 03:36 | 44.76989 | -118.18657 | 37278 ft | 497 kts | 98° |
| 2026-04-18 03:36 | 44.75624 | -118.09123 | 37250 ft | 496 kts | 98° |
| 2026-04-18 03:37 | 44.74260 | -117.99657 | 37259 ft | 496 kts | 98° |
| 2026-04-18 03:37 | 44.72883 | -117.90161 | 37251 ft | 495 kts | 98° |
| 2026-04-18 03:38 | 44.71724 | -117.82214 | 37236 ft | 494 kts | 98° |
| 2026-04-18 03:38 | 44.70346 | -117.72816 | 37243 ft | 494 kts | 98° |
| 2026-04-18 03:39 | 44.68952 | -117.63361 | 37255 ft | 493 kts | 98° |
| 2026-04-18 03:39 | 44.67554 | -117.53946 | 37277 ft | 492 kts | 98° |
| 2026-04-18 03:40 | 44.66157 | -117.44586 | 37337 ft | 491 kts | 98° |
| 2026-04-18 03:40 | 44.64744 | -117.35177 | 37320 ft | 492 kts | 98° |
| 2026-04-18 03:41 | 44.63322 | -117.25764 | 37324 ft | 493 kts | 98° |
| 2026-04-18 03:41 | 44.61889 | -117.16338 | 37326 ft | 493 kts | 98° |
| 2026-04-18 03:42 | 44.60450 | -117.06932 | 37312 ft | 493 kts | 98° |
| 2026-04-18 03:42 | 44.59002 | -116.97507 | 37327 ft | 495 kts | 98° |
| 2026-04-18 03:43 | 44.57542 | -116.88068 | 37325 ft | 496 kts | 98° |
| 2026-04-18 03:43 | 44.56068 | -116.78592 | 37328 ft | 497 kts | 98° |
| 2026-04-18 03:44 | 44.54594 | -116.69179 | 37326 ft | 498 kts | 98° |
| 2026-04-18 03:44 | 44.53102 | -116.59702 | 37343 ft | 499 kts | 98° |
| 2026-04-18 03:45 | 44.51596 | -116.50188 | 37328 ft | 499 kts | 98° |
| 2026-04-18 03:45 | 44.50085 | -116.40698 | 37337 ft | 500 kts | 98° |
| 2026-04-18 03:46 | 44.48562 | -116.31189 | 37345 ft | 500 kts | 98° |
| 2026-04-18 03:46 | 44.47033 | -116.21692 | 37313 ft | 500 kts | 98° |
| 2026-04-18 03:47 | 44.45495 | -116.12201 | 37310 ft | 500 kts | 99° |
| 2026-04-18 03:47 | 44.43953 | -116.02730 | 37323 ft | 498 kts | 99° |
| 2026-04-18 03:48 | 44.42414 | -115.93336 | 37319 ft | 498 kts | 98° |
| 2026-04-18 03:48 | 44.40855 | -115.83870 | 37307 ft | 498 kts | 98° |
| 2026-04-18 03:49 | 44.39294 | -115.74444 | 37302 ft | 497 kts | 98° |
| 2026-04-18 03:49 | 44.37725 | -115.65023 | 37292 ft | 497 kts | 98° |
| 2026-04-18 03:50 | 44.36160 | -115.55670 | 37297 ft | 498 kts | 98° |
| 2026-04-18 03:50 | 44.34577 | -115.46260 | 37319 ft | 498 kts | 98° |
| 2026-04-18 03:51 | 44.32979 | -115.36824 | 37291 ft | 499 kts | 98° |
| 2026-04-18 03:51 | 44.31375 | -115.27401 | 37277 ft | 498 kts | 99° |
| 2026-04-18 03:52 | 44.29762 | -115.17967 | 37278 ft | 500 kts | 98° |
| 2026-04-18 03:52 | 44.28137 | -115.08520 | 37276 ft | 500 kts | 99° |
| 2026-04-18 03:53 | 44.26504 | -114.99075 | 37268 ft | 501 kts | 99° |
| 2026-04-18 03:53 | 44.24863 | -114.89628 | 36853 ft | 509 kts | 98° |
| 2026-04-18 03:54 | 44.24028 | -114.84834 | 36357 ft | 508 kts | 98° |
| 2026-04-18 03:54 | 44.23190 | -114.80046 | 35772 ft | 508 kts | 98° |
| 2026-04-18 03:54 | 44.22348 | -114.75251 | 35205 ft | 509 kts | 98° |
| 2026-04-18 03:54 | 44.21503 | -114.70474 | 34755 ft | 505 kts | 97° |
| 2026-04-18 03:55 | 44.20666 | -114.65761 | 34360 ft | 502 kts | 97° |
| 2026-04-18 03:55 | 44.19831 | -114.61044 | 33828 ft | 500 kts | 97° |
| 2026-04-18 03:55 | 44.19001 | -114.56357 | 33411 ft | 496 kts | 97° |
| 2026-04-18 03:55 | 44.18176 | -114.51712 | 32970 ft | 493 kts | 97° |
| 2026-04-18 03:56 | 44.17352 | -114.47089 | 32597 ft | 489 kts | 96° |
| 2026-04-18 03:56 | 44.16534 | -114.42507 | 32170 ft | 485 kts | 97° |
| 2026-04-18 03:56 | 44.15720 | -114.37966 | 31755 ft | 483 kts | 97° |
| 2026-04-18 03:56 | 44.14908 | -114.33441 | 31331 ft | 479 kts | 97° |
| 2026-04-18 03:57 | 44.13295 | -114.24486 | 30541 ft | 475 kts | 97° |
| 2026-04-18 03:57 | 44.12491 | -114.20045 | 30114 ft | 472 kts | 97° |
| 2026-04-18 03:57 | 44.11701 | -114.15684 | 29670 ft | 469 kts | 97° |
| 2026-04-18 03:58 | 44.10904 | -114.11302 | 29229 ft | 466 kts | 97° |
| 2026-04-18 03:58 | 44.10110 | -114.06950 | 28790 ft | 462 kts | 97° |
| 2026-04-18 03:58 | 44.09323 | -114.02645 | 28412 ft | 456 kts | 97° |
| 2026-04-18 03:58 | 44.08542 | -113.98388 | 28038 ft | 452 kts | 96° |
| 2026-04-18 03:59 | 44.07766 | -113.94160 | 27622 ft | 449 kts | 96° |
| 2026-04-18 03:59 | 44.06996 | -113.89963 | 27210 ft | 446 kts | 96° |
| 2026-04-18 03:59 | 44.06228 | -113.85792 | 26799 ft | 443 kts | 96° |
| 2026-04-18 03:59 | 44.05466 | -113.81665 | 26402 ft | 439 kts | 96° |
| 2026-04-18 04:00 | 44.04708 | -113.77570 | 26002 ft | 436 kts | 96° |
| 2026-04-18 04:00 | 44.03953 | -113.73501 | 25613 ft | 432 kts | 96° |
| 2026-04-18 04:00 | 44.03206 | -113.69483 | 25208 ft | 428 kts | 96° |
| 2026-04-18 04:00 | 44.02465 | -113.65502 | 24849 ft | 424 kts | 96° |
| 2026-04-18 04:01 | 44.01727 | -113.61553 | 24447 ft | 420 kts | 96° |
| 2026-04-18 04:01 | 44.00998 | -113.57638 | 24042 ft | 418 kts | 96° |
| 2026-04-18 04:01 | 44.00270 | -113.53736 | 23656 ft | 415 kts | 96° |
| 2026-04-18 04:01 | 43.99543 | -113.49875 | 23231 ft | 412 kts | 96° |
| 2026-04-18 04:02 | 43.98822 | -113.46041 | 22824 ft | 408 kts | 96° |
| 2026-04-18 04:02 | 43.98103 | -113.42239 | 22453 ft | 405 kts | 96° |
| 2026-04-18 04:02 | 43.97389 | -113.38467 | 22076 ft | 402 kts | 96° |
| 2026-04-18 04:02 | 43.96682 | -113.34727 | 21717 ft | 398 kts | 96° |
| 2026-04-18 04:03 | 43.95981 | -113.31045 | 21351 ft | 394 kts | 96° |
| 2026-04-18 04:03 | 43.95285 | -113.27371 | 20952 ft | 392 kts | 96° |
| 2026-04-18 04:03 | 43.94601 | -113.23778 | 20626 ft | 389 kts | 97° |
| 2026-04-18 04:03 | 43.93907 | -113.20163 | 20238 ft | 387 kts | 97° |
| 2026-04-18 04:04 | 43.93219 | -113.16564 | 19890 ft | 384 kts | 97° |
| 2026-04-18 04:04 | 43.92538 | -113.12999 | 19526 ft | 382 kts | 97° |
| 2026-04-18 04:04 | 43.91856 | -113.09438 | 19169 ft | 379 kts | 98° |
| 2026-04-18 04:04 | 43.91180 | -113.05915 | 18832 ft | 377 kts | 98° |
| 2026-04-18 04:05 | 43.90507 | -113.02419 | 18501 ft | 374 kts | 98° |
| 2026-04-18 04:05 | 43.89838 | -112.98949 | 18091 ft | 371 kts | 98° |
| 2026-04-18 04:05 | 43.89171 | -112.95508 | 17679 ft | 368 kts | 99° |
| 2026-04-18 04:05 | 43.88509 | -112.92083 | 17183 ft | 368 kts | 99° |
| 2026-04-18 04:06 | 43.87848 | -112.88674 | 16828 ft | 364 kts | 100° |
| 2026-04-18 04:06 | 43.87193 | -112.85295 | 16469 ft | 361 kts | 100° |
| 2026-04-18 04:06 | 43.86552 | -112.81999 | 16156 ft | 357 kts | 101° |
| 2026-04-18 04:06 | 43.85908 | -112.78692 | 15809 ft | 354 kts | 101° |
| 2026-04-18 04:07 | 43.85268 | -112.75416 | 15493 ft | 351 kts | 102° |
| 2026-04-18 04:07 | 43.84633 | -112.72168 | 15183 ft | 347 kts | 102° |
| 2026-04-18 04:07 | 43.84004 | -112.68958 | 14854 ft | 344 kts | 102° |
| 2026-04-18 04:07 | 43.83379 | -112.65769 | 14534 ft | 342 kts | 103° |
| 2026-04-18 04:08 | 43.82756 | -112.62598 | 14220 ft | 339 kts | 103° |
| 2026-04-18 04:08 | 43.82138 | -112.59458 | 13875 ft | 336 kts | 104° |
| 2026-04-18 04:08 | 43.81526 | -112.56356 | 13584 ft | 332 kts | 104° |
| 2026-04-18 04:08 | 43.80919 | -112.53283 | 13261 ft | 329 kts | 104° |
| 2026-04-18 04:09 | 43.80316 | -112.50239 | 12954 ft | 326 kts | 104° |
| 2026-04-18 04:09 | 43.79720 | -112.47227 | 12649 ft | 323 kts | 104° |
| 2026-04-18 04:09 | 43.79128 | -112.44244 | 12332 ft | 320 kts | 104° |
| 2026-04-18 04:09 | 43.78540 | -112.41286 | 12041 ft | 318 kts | 104° |
| 2026-04-18 04:10 | 43.77956 | -112.38352 | 11739 ft | 315 kts | 103° |
| 2026-04-18 04:10 | 43.77374 | -112.35432 | 11424 ft | 314 kts | 103° |
| 2026-04-18 04:10 | 43.76796 | -112.32534 | 11143 ft | 311 kts | 103° |
| 2026-04-18 04:10 | 43.76221 | -112.29658 | 10862 ft | 309 kts | 103° |
| 2026-04-18 04:11 | 43.75651 | -112.26807 | 10568 ft | 307 kts | 103° |
| 2026-04-18 04:11 | 43.75084 | -112.23973 | 10357 ft | 302 kts | 104° |
| 2026-04-18 04:11 | 43.74531 | -112.21219 | 10235 ft | 295 kts | 104° |
| 2026-04-18 04:11 | 43.73986 | -112.18508 | 10104 ft | 288 kts | 104° |
| 2026-04-18 04:12 | 43.73455 | -112.15870 | 9924 ft | 283 kts | 105° |
| 2026-04-18 04:12 | 43.72928 | -112.13259 | 9680 ft | 281 kts | 105° |
| 2026-04-18 04:12 | 43.72405 | -112.10662 | 9398 ft | 280 kts | 105° |
| 2026-04-18 04:12 | 43.71883 | -112.08079 | 9122 ft | 279 kts | 105° |
| 2026-04-18 04:13 | 43.71362 | -112.05503 | 8868 ft | 277 kts | 105° |
| 2026-04-18 04:13 | 43.70850 | -112.02972 | 8750 ft | 270 kts | 105° |
| 2026-04-18 04:13 | 43.70349 | -112.00498 | 8633 ft | 264 kts | 105° |
| 2026-04-18 04:13 | 43.69903 | -111.98098 | 8511 ft | 258 kts | 97° |
| 2026-04-18 04:14 | 43.70100 | -111.95704 | 8416 ft | 248 kts | 65° |
| 2026-04-18 04:14 | 43.71095 | -111.93843 | 8320 ft | 239 kts | 39° |
| 2026-04-18 04:14 | 43.72387 | -111.92425 | 8169 ft | 238 kts | 36° |
| 2026-04-18 04:14 | 43.73732 | -111.91034 | 7878 ft | 243 kts | 36° |
| 2026-04-18 04:15 | 43.74906 | -111.89361 | 7565 ft | 246 kts | 62° |
| 2026-04-18 04:15 | 43.75317 | -111.87102 | 7289 ft | 245 kts | 94° |
| 2026-04-18 04:15 | 43.74824 | -111.84901 | 7131 ft | 238 kts | 126° |
| 2026-04-18 04:15 | 43.73595 | -111.83445 | 7095 ft | 233 kts | 158° |
| 2026-04-18 04:16 | 43.72026 | -111.83137 | 7098 ft | 230 kts | 191° |
| 2026-04-18 04:16 | 43.70534 | -111.83923 | 7120 ft | 232 kts | 209° |
| 2026-04-18 04:16 | 43.69328 | -111.85345 | 7098 ft | 231 kts | 236° |
| 2026-04-18 04:16 | 43.68551 | -111.87246 | 7109 ft | 223 kts | 243° |
| 2026-04-18 04:17 | 43.68026 | -111.89219 | 7113 ft | 216 kts | 249° |
| 2026-04-18 04:17 | 43.67120 | -111.90823 | 7117 ft | 215 kts | 211° |
| 2026-04-18 04:17 | 43.65792 | -111.91804 | 7114 ft | 218 kts | 214° |
| 2026-04-18 04:17 | 43.64609 | -111.93105 | 7125 ft | 218 kts | 219° |
| 2026-04-18 04:18 | 43.63404 | -111.94386 | 7123 ft | 219 kts | 217° |
| 2026-04-18 04:18 | 43.62201 | -111.95659 | 7116 ft | 214 kts | 218° |
| 2026-04-18 04:18 | 43.61038 | -111.96907 | 7085 ft | 212 kts | 219° |
| 2026-04-18 04:18 | 43.59871 | -111.98164 | 6825 ft | 210 kts | 219° |
| 2026-04-18 04:19 | 43.58753 | -111.99368 | 6508 ft | 198 kts | 219° |
| 2026-04-18 04:19 | 43.57699 | -112.00504 | 6245 ft | 187 kts | 218° |
| 2026-04-18 04:19 | 43.56691 | -112.01590 | 5955 ft | 180 kts | 218° |
| 2026-04-18 04:19 | 43.55754 | -112.02600 | 5658 ft | 164 kts | 217° |
| 2026-04-18 04:20 | 43.54893 | -112.03527 | 5389 ft | 150 kts | 217° |
| 2026-04-18 04:20 | 43.54076 | -112.04405 | 5107 ft | 149 kts | 217° |
| 2026-04-18 04:20 | 43.53287 | -112.05278 | 4951 ft | 144 kts | 217° |
| 2026-04-18 04:20 | 43.52496 | -112.06119 | 4815 ft | 145 kts | 217° |
| 2026-04-18 04:21 | 43.51703 | -112.06962 | 4732 ft | 132 kts | 218° |
| 2026-04-18 04:21 | 43.51152 | -112.07553 | 4735 ft | 69 kts | 217° |
| 2026-04-18 04:21 | 43.50846 | -112.07882 | 4739 ft | 45 kts | 219° |
| 2026-04-18 04:21 | 43.50668 | -112.08078 | 4741 ft | 27 kts | 218° |
| 2026-04-18 04:22 | 43.50516 | -112.08133 | 4740 ft | 24 kts | 127° |
| 2026-04-18 04:22 | 43.50573 | -112.07987 | 4745 ft | 12 kts | 38° |
| 2026-04-18 04:22 | 43.50630 | -112.07925 | 4740 ft | 10 kts | 38° |
| 2026-04-18 04:22 | 43.50685 | -112.07865 | 4739 ft | 10 kts | 38° |
| 2026-04-18 04:23 | 43.50739 | -112.07805 | 4739 ft | 10 kts | 38° |
| 2026-04-18 04:23 | 43.50792 | -112.07750 | 4738 ft | 9 kts | 36° |
| 2026-04-18 04:23 | 43.50849 | -112.07692 | 4738 ft | 12 kts | 37° |
| 2026-04-18 04:23 | 43.50916 | -112.07623 | 4737 ft | 12 kts | 37° |
| 2026-04-18 04:24 | 43.50979 | -112.07552 | 4737 ft | 12 kts | 38° |
| 2026-04-18 04:24 | 43.51041 | -112.07483 | 4737 ft | 11 kts | 38° |
| 2026-04-18 04:24 | 43.51104 | -112.07415 | 4737 ft | 12 kts | 38° |
| 2026-04-18 04:24 | 43.51169 | -112.07346 | 4737 ft | 15 kts | 37° |
| 2026-04-18 04:25 | 43.51287 | -112.07221 | 4736 ft | 23 kts | 38° |
| 2026-04-18 04:25 | 43.51411 | -112.07085 | 4736 ft | 22 kts | 38° |
| 2026-04-18 04:25 | 43.51496 | -112.06964 | 4735 ft | 16 kts | 68° |
| 2026-04-18 04:25 | 43.51499 | -112.06897 | 4735 ft | 5 kts | 104° |
| 2026-04-18 04:26 | 43.51496 | -112.06863 | 4735 ft | 5 kts | 97° |
| 2026-04-18 04:26 | 43.51496 | -112.06862 | 4735 ft | 0 kts | 97° |